createdAt,value
2023-01-15T00:02:09.627Z,99108.50
2023-01-15T00:04:39.375Z,99108.27
2023-01-15T00:07:08.839Z,99090.43
2023-01-15T00:09:38.591Z,99094.27
2023-01-15T00:12:08.996Z,99089.96
2023-01-15T00:14:38.449Z,99083.62
2023-01-15T00:17:08.220Z,99078.81
2023-01-15T00:19:38.476Z,99072.96
2023-01-15T00:22:08.255Z,99069.20
2023-01-15T00:24:55.758Z,99066.50
2023-01-15T00:27:28.886Z,99066.97
2023-01-15T00:29:57.690Z,99064.05
2023-01-15T00:32:29.189Z,99068.97
2023-01-15T00:35:01.957Z,99067.65
2023-01-15T00:37:31.720Z,99063.56
2023-01-15T00:40:01.476Z,99061.88
2023-01-15T00:42:31.278Z,99068.23
2023-01-15T00:45:02.704Z,99058.34
2023-01-15T00:47:33.201Z,99048.56
2023-01-15T00:50:02.962Z,99047.55
2023-01-15T00:52:33.260Z,99035.74
2023-01-15T00:55:04.148Z,99028.17
2023-01-15T00:57:33.887Z,99039.75
2023-01-15T01:00:04.249Z,99046.09
2023-01-15T01:02:34.232Z,99041.78
2023-01-15T01:05:04.507Z,99028.73
2023-01-15T01:07:34.255Z,99011.54
2023-01-15T01:10:05.479Z,99027.28
2023-01-15T01:12:35.101Z,99013.68
2023-01-15T01:15:05.326Z,99017.48
2023-01-15T01:17:35.609Z,99022.30
2023-01-15T01:20:07.398Z,99007.58
2023-01-15T01:22:37.121Z,99010.54
2023-01-15T01:25:07.573Z,99013.99
2023-01-15T01:27:37.104Z,99012.70
2023-01-15T01:30:08.456Z,99009.35
2023-01-15T01:32:38.539Z,99010.67
2023-01-15T01:35:08.550Z,99008.08
2023-01-15T01:37:38.490Z,98999.21
2023-01-15T01:40:08.908Z,98993.11
2023-01-15T01:42:38.669Z,98992.75
2023-01-15T01:45:16.879Z,98985.62
2023-01-15T01:47:49.033Z,98977.97
2023-01-15T01:50:19.535Z,98974.04
2023-01-15T01:52:52.006Z,98959.52
2023-01-15T01:55:24.803Z,98954.02
2023-01-15T01:57:59.097Z,98962.45
2023-01-15T02:00:31.302Z,98944.45
2023-01-15T02:03:02.038Z,98958.57
2023-01-15T02:05:41.057Z,98945.34
2023-01-15T02:08:11.059Z,98945.34
2023-01-15T02:10:41.491Z,98949.98
2023-01-15T02:13:27.649Z,98952.77
2023-01-15T02:16:03.206Z,98940.77
2023-01-15T02:18:45.252Z,98963.05
2023-01-15T02:21:20.586Z,98963.05
2023-01-15T02:23:53.418Z,98945.24
2023-01-15T02:26:28.837Z,98933.96
2023-01-15T02:29:00.538Z,98927.13
2023-01-15T02:31:42.185Z,98915.12
2023-01-15T02:34:15.161Z,98907.00
2023-01-15T02:36:48.225Z,98904.30
2023-01-15T02:39:22.400Z,98910.48
2023-01-15T02:41:55.064Z,98915.45
2023-01-15T02:44:27.651Z,98914.52
2023-01-15T02:47:00.492Z,98918.02
2023-01-15T02:49:32.967Z,98919.77
2023-01-15T02:52:07.909Z,98910.67
2023-01-15T02:54:46.570Z,98896.48
2023-01-15T02:57:17.653Z,98895.43
2023-01-15T02:59:51.229Z,98889.67
2023-01-15T03:02:27.264Z,98887.65
2023-01-15T03:05:09.147Z,98883.48
2023-01-15T03:07:46.532Z,98897.52
2023-01-15T03:10:17.379Z,98889.39
2023-01-15T03:13:06.279Z,98882.50
2023-01-15T03:16:07.475Z,98885.19
2023-01-15T03:18:40.551Z,98870.83
2023-01-15T03:21:13.614Z,98858.98
2023-01-15T03:23:46.407Z,98861.75
2023-01-15T03:26:15.995Z,98868.17
2023-01-15T03:28:47.703Z,98876.97
2023-01-15T03:31:17.876Z,98856.87
2023-01-15T03:33:47.834Z,98841.87
2023-01-15T03:36:19.107Z,98857.58
2023-01-15T03:38:51.731Z,98860.05
2023-01-15T03:41:44.028Z,98856.09
2023-01-15T03:44:30.080Z,98849.84
2023-01-15T03:47:08.945Z,98834.13
2023-01-15T03:49:48.217Z,98838.75
2023-01-15T03:52:37.847Z,98838.27
2023-01-15T03:55:17.059Z,98824.48
2023-01-15T03:57:54.540Z,98824.19
2023-01-15T04:00:30.718Z,98820.27
2023-01-15T04:03:04.019Z,98821.38
2023-01-15T04:05:37.824Z,98817.20
2023-01-15T04:08:09.574Z,98825.39
2023-01-15T04:10:39.481Z,98829.56
2023-01-15T04:13:10.755Z,98827.97
2023-01-15T04:15:42.261Z,98813.23
2023-01-15T04:18:12.198Z,98819.00
2023-01-15T04:20:42.111Z,98819.63
2023-01-15T04:23:12.166Z,98805.67
2023-01-15T04:25:41.751Z,98803.86
2023-01-15T04:28:13.091Z,98799.34
2023-01-15T04:30:43.701Z,98803.69
2023-01-15T04:33:13.667Z,98800.28
2023-01-15T04:35:44.521Z,98793.75
2023-01-15T04:38:14.235Z,98790.13
2023-01-15T04:41:02.174Z,98787.73
2023-01-15T04:43:49.874Z,98783.48
2023-01-15T04:46:24.377Z,98778.05
2023-01-15T04:48:54.143Z,98762.66
2023-01-15T04:51:23.795Z,98753.84
2023-01-15T04:53:53.721Z,98764.66
2023-01-15T04:56:23.195Z,98754.73
2023-01-15T04:58:52.929Z,98758.11
2023-01-15T05:01:23.045Z,98758.45
2023-01-15T05:03:52.889Z,98750.69
2023-01-15T05:06:22.380Z,98740.63
2023-01-15T05:08:52.110Z,98745.13
2023-01-15T05:11:21.808Z,98743.41
2023-01-15T05:13:51.725Z,98739.23
2023-01-15T05:16:26.733Z,98735.77
2023-01-15T05:18:59.944Z,98738.75
2023-01-15T05:21:33.030Z,98736.25
2023-01-15T05:24:06.586Z,98732.73
2023-01-15T05:26:37.097Z,98734.58
2023-01-15T05:29:07.529Z,98729.13
2023-01-15T05:31:37.091Z,98742.78
2023-01-15T05:34:07.107Z,98732.44
2023-01-15T05:36:37.661Z,98740.02
2023-01-15T05:39:07.721Z,98738.84
2023-01-15T05:41:50.083Z,98744.28
2023-01-15T05:44:25.094Z,98742.00
2023-01-15T05:46:57.257Z,98742.84
2023-01-15T05:49:28.436Z,98746.66
2023-01-15T05:51:58.762Z,98752.19
2023-01-15T05:54:31.433Z,98752.62
2023-01-15T05:57:01.596Z,98752.80
2023-01-15T05:59:33.530Z,98751.44
2023-01-15T06:02:03.274Z,98744.33
2023-01-15T06:04:33.120Z,98751.87
2023-01-15T06:07:03.145Z,98754.55
2023-01-15T06:09:33.189Z,98756.44
2023-01-15T06:12:02.940Z,98748.05
2023-01-15T06:14:32.711Z,98750.82
2023-01-15T06:17:02.497Z,98745.33
2023-01-15T06:19:33.376Z,98741.03
2023-01-15T06:22:03.769Z,98741.03
2023-01-15T06:24:33.237Z,98742.78
2023-01-15T06:27:02.986Z,98740.73
2023-01-15T06:29:32.886Z,98730.45
2023-01-15T06:32:02.722Z,98734.23
2023-01-15T06:34:32.941Z,98727.71
2023-01-15T06:37:02.668Z,98729.45
2023-01-15T06:39:32.441Z,98732.58
2023-01-15T06:42:20.251Z,98732.21
2023-01-15T06:45:07.984Z,98726.36
2023-01-15T06:47:37.726Z,98726.19
2023-01-15T06:50:07.773Z,98722.30
2023-01-15T06:52:37.492Z,98725.56
2023-01-15T06:55:07.794Z,98718.69
2023-01-15T06:57:40.071Z,98725.48
2023-01-15T07:00:10.578Z,98714.25
2023-01-15T07:02:41.394Z,98712.64
2023-01-15T07:05:11.498Z,98710.91
2023-01-15T07:07:41.144Z,98710.91
2023-01-15T07:10:12.091Z,98712.64
2023-01-15T07:12:41.931Z,98726.20
2023-01-15T07:15:12.373Z,98711.46
2023-01-15T07:17:41.841Z,98719.41
2023-01-15T07:20:12.394Z,98720.42
2023-01-15T07:22:42.180Z,98719.59
2023-01-15T07:25:11.816Z,98711.61
2023-01-15T07:27:41.568Z,98721.89
2023-01-15T07:30:12.238Z,98715.34
2023-01-15T07:32:42.946Z,98719.02
2023-01-15T07:35:12.654Z,98713.67
2023-01-15T07:37:43.969Z,98724.64
2023-01-15T07:40:13.903Z,98717.20
2023-01-15T07:43:01.290Z,98717.78
2023-01-15T07:45:49.214Z,98714.97
2023-01-15T07:48:36.347Z,98705.16
2023-01-15T07:51:06.971Z,98702.81
2023-01-15T07:53:36.861Z,98706.73
2023-01-15T07:56:06.697Z,98707.02
2023-01-15T07:58:36.735Z,98714.61
2023-01-15T08:01:07.008Z,98696.65
2023-01-15T08:03:37.094Z,98691.22
2023-01-15T08:06:07.155Z,98695.18
2023-01-15T08:08:36.921Z,98686.17
2023-01-15T08:11:24.429Z,98686.17
2023-01-15T08:14:12.208Z,98695.28
2023-01-15T08:16:41.977Z,98695.78
2023-01-15T08:19:11.786Z,98701.74
2023-01-15T08:21:41.552Z,98711.36
2023-01-15T08:24:11.131Z,98700.81
2023-01-15T08:26:40.944Z,98705.39
2023-01-15T08:29:10.559Z,98694.36
2023-01-15T08:31:41.356Z,98699.91
2023-01-15T08:34:11.649Z,98686.09
2023-01-15T08:36:41.201Z,98688.48
2023-01-15T08:39:11.768Z,98683.59
2023-01-15T08:41:41.381Z,98687.13
2023-01-15T08:44:11.387Z,98678.46
2023-01-15T08:46:41.160Z,98680.47
2023-01-15T08:49:12.620Z,98684.08
2023-01-15T08:51:41.377Z,98686.16
2023-01-15T08:54:11.107Z,98686.98
2023-01-15T08:56:40.929Z,98682.30
2023-01-15T08:59:10.679Z,98682.30
2023-01-15T09:01:41.155Z,98683.73
2023-01-15T09:04:12.984Z,98687.90
2023-01-15T09:06:43.717Z,98672.92
2023-01-15T09:09:13.582Z,98672.92
2023-01-15T09:11:45.453Z,98675.07
2023-01-15T09:14:56.684Z,98672.02
2023-01-15T09:16:48.009Z,98681.09
2023-01-15T09:19:17.469Z,98675.70
2023-01-15T09:21:47.538Z,98684.48
2023-01-15T09:24:17.003Z,98686.25
2023-01-15T09:26:47.557Z,98695.30
2023-01-15T09:29:17.120Z,98700.58
2023-01-15T09:31:46.912Z,98690.37
2023-01-15T09:34:16.476Z,98692.27
2023-01-15T09:36:46.516Z,98691.98
2023-01-15T09:39:15.965Z,98691.98
2023-01-15T09:42:16.271Z,98694.62
2023-01-15T09:44:54.966Z,98698.84
2023-01-15T09:47:27.517Z,98697.67
2023-01-15T09:50:12.567Z,98700.38
2023-01-15T09:53:00.258Z,98689.06
2023-01-15T09:55:45.096Z,98688.52
2023-01-15T09:58:18.089Z,98682.43
2023-01-15T10:00:51.186Z,98676.72
2023-01-15T10:03:43.559Z,98676.86
2023-01-15T10:06:41.353Z,98675.54
2023-01-15T10:09:19.599Z,98668.81
2023-01-15T10:12:10.088Z,98665.69
2023-01-15T10:14:51.459Z,98653.22
2023-01-15T10:17:24.303Z,98649.12
2023-01-15T10:19:55.343Z,98658.36
2023-01-15T10:22:42.562Z,98652.81
2023-01-15T10:25:15.042Z,98656.62
2023-01-15T10:27:48.803Z,98650.04
2023-01-15T10:30:27.553Z,98653.30
2023-01-15T10:33:03.369Z,98647.75
2023-01-15T10:35:57.572Z,98650.91
2023-01-15T10:38:42.073Z,98654.83
2023-01-15T10:41:23.384Z,98642.13
2023-01-15T10:44:02.102Z,98638.77
2023-01-15T10:46:36.653Z,98638.84
2023-01-15T10:49:17.592Z,98632.67
2023-01-15T10:51:50.378Z,98630.38
2023-01-15T10:54:31.609Z,98625.06
2023-01-15T10:57:13.854Z,98621.98
2023-01-15T10:59:55.134Z,98626.06
2023-01-15T11:02:30.907Z,98626.20
2023-01-15T11:05:01.953Z,98630.08
2023-01-15T11:07:57.918Z,98630.38
2023-01-15T11:10:15.407Z,98637.43
2023-01-15T11:13:11.534Z,98652.59
2023-01-15T11:16:00.685Z,98641.56
2023-01-15T11:18:50.858Z,98644.66
2023-01-15T11:21:23.309Z,98644.52
2023-01-15T11:23:54.490Z,98642.50
2023-01-15T11:26:26.767Z,98648.47
2023-01-15T11:28:58.361Z,98659.89
2023-01-15T11:31:39.022Z,98663.61
2023-01-15T11:34:21.867Z,98662.02
2023-01-15T11:37:06.243Z,98667.77
2023-01-15T11:39:36.193Z,98665.06
2023-01-15T11:42:26.773Z,98680.79
2023-01-15T11:45:16.712Z,98685.13
2023-01-15T11:48:12.539Z,98700.59
2023-01-15T11:50:57.567Z,98706.14
2023-01-15T11:53:30.259Z,98706.09
2023-01-15T11:56:04.334Z,98710.44
2023-01-15T11:58:37.159Z,98713.79
2023-01-15T12:01:08.164Z,98715.16
2023-01-15T12:03:39.954Z,98714.39
2023-01-15T12:06:14.852Z,98706.99
2023-01-15T12:09:06.100Z,98717.02
2023-01-15T12:11:53.828Z,98733.89
2023-01-15T12:14:35.229Z,98742.98
2023-01-15T12:17:14.643Z,98746.13
2023-01-15T12:19:56.843Z,98748.41
2023-01-15T12:22:41.837Z,98759.11
2023-01-15T12:25:32.616Z,98766.27
2023-01-15T12:28:25.554Z,98772.72
2023-01-15T12:31:13.210Z,98781.58
2023-01-15T12:34:04.305Z,98793.14
2023-01-15T12:36:34.536Z,98791.92
2023-01-15T12:39:19.511Z,98807.23
2023-01-15T12:42:09.801Z,98819.89
2023-01-15T12:45:07.813Z,98814.21
2023-01-15T12:47:52.321Z,98823.88
2023-01-15T12:50:48.714Z,98831.88
2023-01-15T12:53:39.133Z,98843.34
2023-01-15T12:56:14.505Z,98845.73
2023-01-15T12:58:53.269Z,98850.27
2023-01-15T13:01:40.785Z,98841.91
2023-01-15T13:04:17.075Z,98857.86
2023-01-15T13:06:49.962Z,98859.55
2023-01-15T13:09:40.443Z,98857.87
2023-01-15T13:12:13.194Z,98865.87
2023-01-15T13:14:46.455Z,98875.14
2023-01-15T13:17:30.568Z,98868.48
2023-01-15T13:20:19.939Z,98874.03
2023-01-15T13:22:55.335Z,98871.77
2023-01-15T13:25:39.874Z,98873.48
2023-01-15T13:28:43.359Z,98886.72
2023-01-15T13:31:21.865Z,98858.78
2023-01-15T13:33:54.748Z,98858.78
2023-01-15T13:36:36.267Z,98865.48
2023-01-15T13:39:08.949Z,98883.73
2023-01-15T13:41:56.311Z,98892.21
2023-01-15T13:44:29.127Z,98877.18
2023-01-15T13:47:05.210Z,98884.55
2023-01-15T13:49:37.883Z,98881.45
2023-01-15T13:52:10.502Z,98884.91
2023-01-15T13:54:42.523Z,98905.94
2023-01-15T13:57:27.414Z,98916.41
2023-01-15T13:59:57.193Z,98916.75
2023-01-15T14:02:38.982Z,98918.92
2023-01-15T14:05:28.255Z,98916.48
2023-01-15T14:07:58.601Z,98932.38
2023-01-15T14:10:37.174Z,98922.10
2023-01-15T14:13:34.956Z,98947.19
2023-01-15T14:16:27.042Z,98949.45
2023-01-15T14:19:25.424Z,98946.72
2023-01-15T14:22:22.312Z,98935.98
2023-01-15T14:25:01.162Z,98921.00
2023-01-15T14:27:48.252Z,98934.00
2023-01-15T14:30:32.434Z,98958.84
2023-01-15T14:33:20.111Z,98966.60
2023-01-15T14:35:49.995Z,98967.98
2023-01-15T14:38:22.006Z,98974.95
2023-01-15T14:41:01.191Z,98975.20
2023-01-15T14:43:34.697Z,98967.19
2023-01-15T14:46:13.752Z,98950.73
2023-01-15T14:48:43.510Z,98947.17
2023-01-15T14:51:28.147Z,98935.78
2023-01-15T14:54:01.384Z,98930.79
2023-01-15T14:56:36.849Z,98927.60
2023-01-15T14:59:09.510Z,98932.73
2023-01-15T15:01:49.350Z,98919.32
2023-01-15T15:04:24.841Z,98909.67
2023-01-15T15:07:04.127Z,98907.66
2023-01-15T15:09:49.203Z,98908.25
2023-01-15T15:12:30.687Z,98914.46
2023-01-15T15:15:24.370Z,98920.70
2023-01-15T15:18:06.178Z,98937.76
2023-01-15T15:20:45.548Z,98929.03
2023-01-15T15:23:39.812Z,98933.35
2023-01-15T15:26:21.173Z,98925.91
2023-01-15T15:29:02.274Z,98945.16
2023-01-15T15:31:37.916Z,98932.23
2023-01-15T15:34:10.266Z,98932.43
2023-01-15T15:36:40.345Z,98922.21
2023-01-15T15:39:31.938Z,98923.62
2023-01-15T15:42:22.369Z,98936.00
2023-01-15T15:45:13.478Z,98941.47
2023-01-15T15:48:02.156Z,98962.23
2023-01-15T15:50:34.662Z,98969.34
2023-01-15T15:53:06.103Z,98983.24
2023-01-15T15:55:42.054Z,99000.66
2023-01-15T15:58:14.566Z,99005.05
2023-01-15T16:00:46.522Z,99017.28
2023-01-15T16:03:27.742Z,99019.48
2023-01-15T16:06:05.626Z,99027.55
2023-01-15T16:08:37.227Z,99019.63
2023-01-15T16:11:10.036Z,99020.23
2023-01-15T16:13:51.637Z,99017.77
2023-01-15T16:16:20.669Z,99021.74
2023-01-15T16:18:53.473Z,99023.48
2023-01-15T16:21:35.020Z,99035.78
2023-01-15T16:24:11.623Z,99039.27
2023-01-15T16:26:47.736Z,99035.30
2023-01-15T16:29:20.510Z,99044.03
2023-01-15T16:31:50.850Z,99032.11
2023-01-15T16:34:29.430Z,99034.05
2023-01-15T16:37:00.559Z,99046.22
2023-01-15T16:39:41.562Z,99037.95
2023-01-15T16:42:30.733Z,99041.56
2023-01-15T16:45:03.977Z,99035.81
2023-01-15T16:47:35.939Z,99032.16
2023-01-15T16:50:25.742Z,99023.05
2023-01-15T16:53:01.813Z,99028.52
2023-01-15T16:55:43.605Z,99035.84
2023-01-15T16:58:18.916Z,99035.70
2023-01-15T17:00:55.282Z,99052.88
2023-01-15T17:03:28.009Z,99036.17
2023-01-15T17:06:01.150Z,99031.59
2023-01-15T17:08:35.982Z,99044.87
2023-01-15T17:11:10.103Z,99038.31
2023-01-15T17:13:41.549Z,99043.49
2023-01-15T17:16:24.227Z,99043.49
2023-01-15T17:18:53.983Z,99057.54
2023-01-15T17:21:27.246Z,99064.78
2023-01-15T17:23:59.873Z,99061.75
2023-01-15T17:26:29.975Z,99070.13
2023-01-15T17:28:59.790Z,99075.05
2023-01-15T17:31:32.654Z,99075.05
2023-01-15T17:34:04.040Z,99073.69
2023-01-15T17:36:34.376Z,99090.66
2023-01-15T17:39:04.131Z,99099.30
2023-01-15T17:41:33.876Z,99114.63
2023-01-15T17:44:04.163Z,99107.55
2023-01-15T17:46:33.841Z,99107.55
2023-01-15T17:49:04.057Z,99105.93
2023-01-15T17:51:33.867Z,99114.32
2023-01-15T17:54:03.951Z,99115.91
2023-01-15T17:56:51.057Z,99110.50
2023-01-15T17:59:38.156Z,99113.20
2023-01-15T18:02:28.423Z,99125.26
2023-01-15T18:05:15.657Z,99137.67
2023-01-15T18:07:47.043Z,99143.21
2023-01-15T18:10:18.892Z,99143.21
2023-01-15T18:12:49.330Z,99148.25
2023-01-15T18:15:19.702Z,99135.25
2023-01-15T18:17:49.180Z,99137.45
2023-01-15T18:20:18.814Z,99132.77
2023-01-15T18:22:48.561Z,99140.63
2023-01-15T18:25:19.121Z,99147.55
2023-01-15T18:27:51.016Z,99146.33
2023-01-15T18:30:20.594Z,99140.23
2023-01-15T18:32:50.538Z,99145.89
2023-01-15T18:35:20.449Z,99149.77
2023-01-15T18:37:50.195Z,99151.30
2023-01-15T18:40:20.809Z,99148.88
2023-01-15T18:43:08.296Z,99154.12
2023-01-15T18:45:55.785Z,99171.13
2023-01-15T18:48:25.214Z,99174.41
2023-01-15T18:50:55.916Z,99160.64
2023-01-15T18:53:25.854Z,99167.17
2023-01-15T18:55:57.119Z,99177.37
2023-01-15T18:58:26.867Z,99176.27
2023-01-15T19:00:56.790Z,99172.05
2023-01-15T19:03:28.168Z,99169.72
2023-01-15T19:06:00.972Z,99173.64
2023-01-15T19:08:30.722Z,99179.30
2023-01-15T19:11:00.960Z,99178.20
2023-01-15T19:13:31.010Z,99178.20
2023-01-15T19:16:19.229Z,99193.97
2023-01-15T19:18:50.689Z,99200.73
2023-01-15T19:21:22.646Z,99206.90
2023-01-15T19:23:52.830Z,99203.73
2023-01-15T19:26:22.576Z,99216.91
2023-01-15T19:28:52.362Z,99211.34
2023-01-15T19:31:38.995Z,99204.38
2023-01-15T19:34:32.758Z,99207.08
2023-01-15T19:36:41.855Z,99207.08
2023-01-15T19:39:11.341Z,99230.55
2023-01-15T19:41:58.965Z,99227.59
2023-01-15T19:44:46.467Z,99222.83
2023-01-15T19:47:39.432Z,99219.94
2023-01-15T19:50:19.498Z,99235.36
2023-01-15T19:52:51.307Z,99239.94
2023-01-15T19:55:22.078Z,99234.70
2023-01-15T19:58:00.385Z,99233.02
2023-01-15T20:00:31.611Z,99236.63
2023-01-15T20:03:01.757Z,99241.81
2023-01-15T20:05:33.106Z,99245.45
2023-01-15T20:08:02.852Z,99237.20
2023-01-15T20:10:34.366Z,99239.59
2023-01-15T20:13:21.783Z,99237.40
2023-01-15T20:15:51.575Z,99243.78
2023-01-15T20:18:22.728Z,99239.00
2023-01-15T20:20:56.088Z,99237.08
2023-01-15T20:23:25.846Z,99237.56
2023-01-15T20:25:57.403Z,99254.20
2023-01-15T20:28:27.101Z,99242.98
2023-01-15T20:30:57.657Z,99238.90
2023-01-15T20:33:27.309Z,99236.72
2023-01-15T20:35:57.163Z,99236.48
2023-01-15T20:38:27.198Z,99233.77
2023-01-15T20:41:00.558Z,99224.70
2023-01-15T20:43:48.666Z,99220.67
2023-01-15T20:46:18.444Z,99228.39
2023-01-15T20:49:06.349Z,99216.63
2023-01-15T20:51:36.136Z,99207.74
2023-01-15T20:54:06.943Z,99213.48
2023-01-15T20:56:36.783Z,99221.63
2023-01-15T20:59:06.654Z,99219.77
2023-01-15T21:01:36.594Z,99222.27
2023-01-15T21:04:07.243Z,99215.18
2023-01-15T21:06:37.178Z,99213.99
2023-01-15T21:09:07.180Z,99214.11
2023-01-15T21:11:37.061Z,99223.34
2023-01-15T21:14:06.952Z,99223.11
2023-01-15T21:16:36.796Z,99211.81
2023-01-15T21:19:06.393Z,99213.30
2023-01-15T21:21:36.159Z,99211.49
2023-01-15T21:24:07.292Z,99211.40
2023-01-15T21:26:37.682Z,99209.05
2023-01-15T21:29:07.274Z,99202.33
2023-01-15T21:31:37.059Z,99213.63
2023-01-15T21:34:06.983Z,99214.47
2023-01-15T21:36:36.969Z,99214.47
2023-01-15T21:39:06.757Z,99217.60
2023-01-15T21:41:54.362Z,99223.21
2023-01-15T21:44:38.117Z,99217.38
2023-01-15T21:47:13.830Z,99217.05
2023-01-15T21:49:44.574Z,99212.56
2023-01-15T21:52:19.622Z,99214.43
2023-01-15T21:54:50.020Z,99212.68
2023-01-15T21:57:21.486Z,99217.88
2023-01-15T21:59:51.304Z,99210.97
2023-01-15T22:02:23.309Z,99210.59
2023-01-15T22:04:53.301Z,99208.92
2023-01-15T22:07:22.791Z,99204.33
2023-01-15T22:09:52.866Z,99197.33
2023-01-15T22:12:22.286Z,99202.46
2023-01-15T22:14:53.784Z,99200.41
2023-01-15T22:17:23.423Z,99191.63
2023-01-15T22:19:53.347Z,99191.63
2023-01-15T22:22:23.081Z,99184.48
2023-01-15T22:24:52.819Z,99190.88
2023-01-15T22:27:22.295Z,99186.03
2023-01-15T22:29:52.059Z,99184.56
2023-01-15T22:32:21.502Z,99183.92
2023-01-15T22:34:51.954Z,99174.38
2023-01-15T22:37:21.386Z,99170.84
2023-01-15T22:39:51.267Z,99164.10
2023-01-15T22:42:31.428Z,99164.84
2023-01-15T22:45:03.074Z,99162.50
2023-01-15T22:47:32.828Z,99170.83
2023-01-15T22:50:02.630Z,99164.50
2023-01-15T22:52:32.377Z,99159.42
2023-01-15T22:55:02.151Z,99154.21
2023-01-15T22:57:32.117Z,99157.91
2023-01-15T23:00:02.246Z,99158.30
2023-01-15T23:02:49.316Z,99141.18
2023-01-15T23:05:19.144Z,99150.34
2023-01-15T23:07:49.040Z,99153.44
2023-01-15T23:10:18.610Z,99145.58
2023-01-15T23:12:48.393Z,99141.00
2023-01-15T23:15:17.948Z,99147.38
2023-01-15T23:17:47.680Z,99138.58
2023-01-15T23:20:17.234Z,99134.95
2023-01-15T23:22:47.031Z,99129.32
2023-01-15T23:25:16.648Z,99128.77
2023-01-15T23:27:46.371Z,99126.53
2023-01-15T23:30:15.741Z,99126.53
2023-01-15T23:32:45.479Z,99134.17
2023-01-15T23:35:15.147Z,99126.97
2023-01-15T23:37:44.976Z,99129.83
2023-01-15T23:40:14.617Z,99129.83
2023-01-15T23:43:02.001Z,99130.20
2023-01-15T23:45:49.540Z,99125.34
2023-01-15T23:48:20.121Z,99126.27
2023-01-15T23:50:50.113Z,99128.14
2023-01-15T23:53:19.582Z,99121.00
2023-01-15T23:55:49.446Z,99118.39
2023-01-15T23:58:19.186Z,99113.72
